<?xml version="1.0" encoding="UTF-8" standalone="no" ?>
<gpx xmlns="http://www.topografix.com/GPX/1/1" xmlns:xsi="http://www.w3.org/2001/XMLSchema-instance" xsi:schemaLocation="http://www.topografix.com/GPX/1/1 http://www.topografix.com/GPX/1/1/gpx.xsd" version="1.1" creator="VisuGPX - https://www.visugpx.com">
  <metadata>
    <name>Saverne - TGV Est - Mt St Michel</name>
    <desc><![CDATA[Saverne - TGV Est - Mt St Michel]]></desc>
  </metadata>
  <trk>
    <name><![CDATA[GPS-ADi2012/09/04_17:19]]></name>
    <trkseg>
      <trkpt lat="48.73387" lon="7.35408">
        <ele>245.3</ele>
        <time>2012-09-04T15:19:06Z</time>
      </trkpt>
      <trkpt lat="48.73393" lon="7.35406">
        <ele>245.4</ele>
        <time>2012-09-04T15:24:29Z</time>
      </trkpt>
      <trkpt lat="48.73422" lon="7.35466">
        <ele>245.7</ele>
        <time>2012-09-04T15:25:32Z</time>
      </trkpt>
      <trkpt lat="48.73516" lon="7.35736">
        <ele>244.2</ele>
        <time>2012-09-04T15:26:20Z</time>
      </trkpt>
      <trkpt lat="48.73541" lon="7.35783">
        <ele>242.6</ele>
        <time>2012-09-04T15:26:29Z</time>
      </trkpt>
      <trkpt lat="48.73585" lon="7.35843">
        <ele>240.5</ele>
        <time>2012-09-04T15:26:39Z</time>
      </trkpt>
      <trkpt lat="48.73606" lon="7.35854">
        <ele>238.2</ele>
        <time>2012-09-04T15:26:42Z</time>
      </trkpt>
      <trkpt lat="48.73631" lon="7.35856">
        <ele>235.7</ele>
        <time>2012-09-04T15:26:45Z</time>
      </trkpt>
      <trkpt lat="48.73655" lon="7.35846">
        <ele>234.2</ele>
        <time>2012-09-04T15:26:48Z</time>
      </trkpt>
      <trkpt lat="48.73686" lon="7.35818">
        <ele>233</ele>
        <time>2012-09-04T15:26:52Z</time>
      </trkpt>
      <trkpt lat="48.73731" lon="7.35762">
        <ele>231.2</ele>
        <time>2012-09-04T15:26:58Z</time>
      </trkpt>
      <trkpt lat="48.73751" lon="7.35761">
        <ele>229.6</ele>
        <time>2012-09-04T15:27:00Z</time>
      </trkpt>
      <trkpt lat="48.73768" lon="7.35778">
        <ele>227.5</ele>
        <time>2012-09-04T15:27:02Z</time>
      </trkpt>
      <trkpt lat="48.73783" lon="7.35861">
        <ele>223.4</ele>
        <time>2012-09-04T15:27:08Z</time>
      </trkpt>
      <trkpt lat="48.73803" lon="7.3591">
        <ele>221.2</ele>
        <time>2012-09-04T15:27:12Z</time>
      </trkpt>
      <trkpt lat="48.73845" lon="7.35969">
        <ele>218.7</ele>
        <time>2012-09-04T15:27:18Z</time>
      </trkpt>
      <trkpt lat="48.73914" lon="7.3604">
        <ele>216.1</ele>
        <time>2012-09-04T15:27:28Z</time>
      </trkpt>
      <trkpt lat="48.73975" lon="7.35943">
        <ele>210</ele>
        <time>2012-09-04T15:27:42Z</time>
      </trkpt>
      <trkpt lat="48.74009" lon="7.35901">
        <ele>206.6</ele>
        <time>2012-09-04T15:27:49Z</time>
      </trkpt>
      <trkpt lat="48.74023" lon="7.35872">
        <ele>204.4</ele>
        <time>2012-09-04T15:27:54Z</time>
      </trkpt>
      <trkpt lat="48.74061" lon="7.35838">
        <ele>199.5</ele>
        <time>2012-09-04T15:28:01Z</time>
      </trkpt>
      <trkpt lat="48.74066" lon="7.3581">
        <ele>199</ele>
        <time>2012-09-04T15:28:23Z</time>
      </trkpt>
      <trkpt lat="48.74101" lon="7.35783">
        <ele>196.6</ele>
        <time>2012-09-04T15:28:51Z</time>
      </trkpt>
      <trkpt lat="48.74109" lon="7.35752">
        <ele>196.4</ele>
        <time>2012-09-04T15:28:58Z</time>
      </trkpt>
      <trkpt lat="48.74107" lon="7.35564">
        <ele>193</ele>
        <time>2012-09-04T15:29:21Z</time>
      </trkpt>
      <trkpt lat="48.74113" lon="7.35538">
        <ele>192.3</ele>
        <time>2012-09-04T15:29:25Z</time>
      </trkpt>
      <trkpt lat="48.74131" lon="7.3553">
        <ele>190.9</ele>
        <time>2012-09-04T15:29:29Z</time>
      </trkpt>
      <trkpt lat="48.74135" lon="7.35497">
        <ele>190.2</ele>
        <time>2012-09-04T15:29:41Z</time>
      </trkpt>
      <trkpt lat="48.74125" lon="7.35185">
        <ele>192.7</ele>
        <time>2012-09-04T15:30:15Z</time>
      </trkpt>
      <trkpt lat="48.74132" lon="7.35157">
        <ele>192</ele>
        <time>2012-09-04T15:30:18Z</time>
      </trkpt>
      <trkpt lat="48.74146" lon="7.35137">
        <ele>189.7</ele>
        <time>2012-09-04T15:30:21Z</time>
      </trkpt>
      <trkpt lat="48.74164" lon="7.3513">
        <ele>187.4</ele>
        <time>2012-09-04T15:30:24Z</time>
      </trkpt>
      <trkpt lat="48.74206" lon="7.35134">
        <ele>188.7</ele>
        <time>2012-09-04T15:30:32Z</time>
      </trkpt>
      <trkpt lat="48.74218" lon="7.35114">
        <ele>189.1</ele>
        <time>2012-09-04T15:30:45Z</time>
      </trkpt>
      <trkpt lat="48.74075" lon="7.34889">
        <ele>188.9</ele>
        <time>2012-09-04T15:31:30Z</time>
      </trkpt>
      <trkpt lat="48.74065" lon="7.34863">
        <ele>189.1</ele>
        <time>2012-09-04T15:31:34Z</time>
      </trkpt>
      <trkpt lat="48.74066" lon="7.34836">
        <ele>188.3</ele>
        <time>2012-09-04T15:31:38Z</time>
      </trkpt>
      <trkpt lat="48.74077" lon="7.3481">
        <ele>190.7</ele>
        <time>2012-09-04T15:31:42Z</time>
      </trkpt>
      <trkpt lat="48.74066" lon="7.34781">
        <ele>193.5</ele>
        <time>2012-09-04T15:31:49Z</time>
      </trkpt>
      <trkpt lat="48.74005" lon="7.34749">
        <ele>192.6</ele>
        <time>2012-09-04T15:32:02Z</time>
      </trkpt>
      <trkpt lat="48.73955" lon="7.34693">
        <ele>198</ele>
        <time>2012-09-04T15:32:12Z</time>
      </trkpt>
      <trkpt lat="48.73935" lon="7.34692">
        <ele>196.2</ele>
        <time>2012-09-04T15:32:17Z</time>
      </trkpt>
      <trkpt lat="48.739" lon="7.34659">
        <ele>195.3</ele>
        <time>2012-09-04T15:32:27Z</time>
      </trkpt>
      <trkpt lat="48.73889" lon="7.34632">
        <ele>195.3</ele>
        <time>2012-09-04T15:32:32Z</time>
      </trkpt>
      <trkpt lat="48.73889" lon="7.34575">
        <ele>197.3</ele>
        <time>2012-09-04T15:32:42Z</time>
      </trkpt>
      <trkpt lat="48.73922" lon="7.3437">
        <ele>208.6</ele>
        <time>2012-09-04T15:33:17Z</time>
      </trkpt>
      <trkpt lat="48.7391" lon="7.34255">
        <ele>208.3</ele>
        <time>2012-09-04T15:33:38Z</time>
      </trkpt>
      <trkpt lat="48.73907" lon="7.34156">
        <ele>214.8</ele>
        <time>2012-09-04T15:33:53Z</time>
      </trkpt>
      <trkpt lat="48.73892" lon="7.34072">
        <ele>218.2</ele>
        <time>2012-09-04T15:34:09Z</time>
      </trkpt>
      <trkpt lat="48.7389" lon="7.33924">
        <ele>226.2</ele>
        <time>2012-09-04T15:34:34Z</time>
      </trkpt>
      <trkpt lat="48.73931" lon="7.33571">
        <ele>230.3</ele>
        <time>2012-09-04T15:35:36Z</time>
      </trkpt>
      <trkpt lat="48.73978" lon="7.33314">
        <ele>240.8</ele>
        <time>2012-09-04T15:36:21Z</time>
      </trkpt>
      <trkpt lat="48.74047" lon="7.33047">
        <ele>253.5</ele>
        <time>2012-09-04T15:37:19Z</time>
      </trkpt>
      <trkpt lat="48.74066" lon="7.32931">
        <ele>255.2</ele>
        <time>2012-09-04T15:37:41Z</time>
      </trkpt>
      <trkpt lat="48.74088" lon="7.32848">
        <ele>257.7</ele>
        <time>2012-09-04T15:37:59Z</time>
      </trkpt>
      <trkpt lat="48.74094" lon="7.32792">
        <ele>260.2</ele>
        <time>2012-09-04T15:38:09Z</time>
      </trkpt>
      <trkpt lat="48.74147" lon="7.32601">
        <ele>258.5</ele>
        <time>2012-09-04T15:38:47Z</time>
      </trkpt>
      <trkpt lat="48.74174" lon="7.32524">
        <ele>255.7</ele>
        <time>2012-09-04T15:39:02Z</time>
      </trkpt>
      <trkpt lat="48.742" lon="7.32471">
        <ele>262.3</ele>
        <time>2012-09-04T15:39:11Z</time>
      </trkpt>
      <trkpt lat="48.74279" lon="7.3234">
        <ele>263.5</ele>
        <time>2012-09-04T15:39:38Z</time>
      </trkpt>
      <trkpt lat="48.74408" lon="7.32194">
        <ele>267.2</ele>
        <time>2012-09-04T15:40:15Z</time>
      </trkpt>
      <trkpt lat="48.74466" lon="7.32153">
        <ele>274.8</ele>
        <time>2012-09-04T15:40:29Z</time>
      </trkpt>
      <trkpt lat="48.74527" lon="7.32137">
        <ele>281.7</ele>
        <time>2012-09-04T15:40:46Z</time>
      </trkpt>
      <trkpt lat="48.74566" lon="7.32119">
        <ele>283.3</ele>
        <time>2012-09-04T15:40:56Z</time>
      </trkpt>
      <trkpt lat="48.7466" lon="7.321">
        <ele>285</ele>
        <time>2012-09-04T15:41:19Z</time>
      </trkpt>
      <trkpt lat="48.74699" lon="7.32084">
        <ele>284.8</ele>
        <time>2012-09-04T15:41:30Z</time>
      </trkpt>
      <trkpt lat="48.74797" lon="7.32066">
        <ele>292.4</ele>
        <time>2012-09-04T15:41:58Z</time>
      </trkpt>
      <trkpt lat="48.7485" lon="7.32036">
        <ele>296</ele>
        <time>2012-09-04T15:42:13Z</time>
      </trkpt>
      <trkpt lat="48.74903" lon="7.32017">
        <ele>292.8</ele>
        <time>2012-09-04T15:42:30Z</time>
      </trkpt>
      <trkpt lat="48.74934" lon="7.31993">
        <ele>291</ele>
        <time>2012-09-04T15:42:41Z</time>
      </trkpt>
      <trkpt lat="48.7497" lon="7.31978">
        <ele>293.9</ele>
        <time>2012-09-04T15:42:52Z</time>
      </trkpt>
      <trkpt lat="48.75026" lon="7.31975">
        <ele>297.3</ele>
        <time>2012-09-04T15:43:16Z</time>
      </trkpt>
      <trkpt lat="48.75095" lon="7.31934">
        <ele>299.8</ele>
        <time>2012-09-04T15:44:00Z</time>
      </trkpt>
      <trkpt lat="48.7515" lon="7.31915">
        <ele>301.8</ele>
        <time>2012-09-04T15:44:32Z</time>
      </trkpt>
      <trkpt lat="48.75167" lon="7.31923">
        <ele>304.5</ele>
        <time>2012-09-04T15:44:42Z</time>
      </trkpt>
      <trkpt lat="48.75187" lon="7.3192">
        <ele>305.1</ele>
        <time>2012-09-04T15:44:50Z</time>
      </trkpt>
      <trkpt lat="48.75222" lon="7.31948">
        <ele>310.9</ele>
        <time>2012-09-04T15:45:05Z</time>
      </trkpt>
      <trkpt lat="48.75278" lon="7.31978">
        <ele>313.1</ele>
        <time>2012-09-04T15:45:25Z</time>
      </trkpt>
      <trkpt lat="48.7532" lon="7.31981">
        <ele>313.5</ele>
        <time>2012-09-04T15:45:35Z</time>
      </trkpt>
      <trkpt lat="48.75361" lon="7.31993">
        <ele>313.9</ele>
        <time>2012-09-04T15:45:43Z</time>
      </trkpt>
      <trkpt lat="48.75435" lon="7.31998">
        <ele>317.9</ele>
        <time>2012-09-04T15:46:03Z</time>
      </trkpt>
      <trkpt lat="48.75452" lon="7.3201">
        <ele>321.6</ele>
        <time>2012-09-04T15:46:08Z</time>
      </trkpt>
      <trkpt lat="48.75471" lon="7.3201">
        <ele>322.9</ele>
        <time>2012-09-04T15:46:14Z</time>
      </trkpt>
      <trkpt lat="48.75629" lon="7.32125">
        <ele>344</ele>
        <time>2012-09-04T15:48:16Z</time>
      </trkpt>
      <trkpt lat="48.75682" lon="7.32129">
        <ele>350.8</ele>
        <time>2012-09-04T15:49:01Z</time>
      </trkpt>
      <trkpt lat="48.75699" lon="7.32116">
        <ele>353.3</ele>
        <time>2012-09-04T15:49:16Z</time>
      </trkpt>
      <trkpt lat="48.75718" lon="7.32117">
        <ele>356.1</ele>
        <time>2012-09-04T15:49:32Z</time>
      </trkpt>
      <trkpt lat="48.75754" lon="7.32127">
        <ele>361.3</ele>
        <time>2012-09-04T15:50:00Z</time>
      </trkpt>
      <trkpt lat="48.7579" lon="7.32129">
        <ele>363.7</ele>
        <time>2012-09-04T15:50:25Z</time>
      </trkpt>
      <trkpt lat="48.75796" lon="7.32155">
        <ele>364.6</ele>
        <time>2012-09-04T15:50:43Z</time>
      </trkpt>
      <trkpt lat="48.75711" lon="7.32262">
        <ele>369.2</ele>
        <time>2012-09-04T15:51:38Z</time>
      </trkpt>
      <trkpt lat="48.75726" lon="7.32272">
        <ele>371.5</ele>
        <time>2012-09-04T15:51:54Z</time>
      </trkpt>
      <trkpt lat="48.75744" lon="7.32264">
        <ele>372</ele>
        <time>2012-09-04T15:52:02Z</time>
      </trkpt>
      <trkpt lat="48.75763" lon="7.32263">
        <ele>373.5</ele>
        <time>2012-09-04T15:52:10Z</time>
      </trkpt>
      <trkpt lat="48.75832" lon="7.32302">
        <ele>381.7</ele>
        <time>2012-09-04T15:52:39Z</time>
      </trkpt>
      <trkpt lat="48.75878" lon="7.32256">
        <ele>381.6</ele>
        <time>2012-09-04T15:53:02Z</time>
      </trkpt>
      <trkpt lat="48.75914" lon="7.32237">
        <ele>382.8</ele>
        <time>2012-09-04T15:53:14Z</time>
      </trkpt>
      <trkpt lat="48.75954" lon="7.32228">
        <ele>385.7</ele>
        <time>2012-09-04T15:53:28Z</time>
      </trkpt>
      <trkpt lat="48.76029" lon="7.3225">
        <ele>392.5</ele>
        <time>2012-09-04T15:53:53Z</time>
      </trkpt>
      <trkpt lat="48.76082" lon="7.32219">
        <ele>397.9</ele>
        <time>2012-09-04T15:54:11Z</time>
      </trkpt>
      <trkpt lat="48.76138" lon="7.32196">
        <ele>403.8</ele>
        <time>2012-09-04T15:54:38Z</time>
      </trkpt>
      <trkpt lat="48.76179" lon="7.32197">
        <ele>407.1</ele>
        <time>2012-09-04T15:54:52Z</time>
      </trkpt>
      <trkpt lat="48.76217" lon="7.32182">
        <ele>410.8</ele>
        <time>2012-09-04T15:55:03Z</time>
      </trkpt>
      <trkpt lat="48.76248" lon="7.3216">
        <ele>414.1</ele>
        <time>2012-09-04T15:55:16Z</time>
      </trkpt>
      <trkpt lat="48.76323" lon="7.32071">
        <ele>415.7</ele>
        <time>2012-09-04T15:55:50Z</time>
      </trkpt>
      <trkpt lat="48.76385" lon="7.31981">
        <ele>408.7</ele>
        <time>2012-09-04T15:56:10Z</time>
      </trkpt>
      <trkpt lat="48.76423" lon="7.31942">
        <ele>403.1</ele>
        <time>2012-09-04T15:56:15Z</time>
      </trkpt>
      <trkpt lat="48.76541" lon="7.31748">
        <ele>391.4</ele>
        <time>2012-09-04T15:56:42Z</time>
      </trkpt>
      <trkpt lat="48.76586" lon="7.31699">
        <ele>385.1</ele>
        <time>2012-09-04T15:56:50Z</time>
      </trkpt>
      <trkpt lat="48.76633" lon="7.31584">
        <ele>374.1</ele>
        <time>2012-09-04T15:57:01Z</time>
      </trkpt>
      <trkpt lat="48.76656" lon="7.31576">
        <ele>372.2</ele>
        <time>2012-09-04T15:57:06Z</time>
      </trkpt>
      <trkpt lat="48.76674" lon="7.31558">
        <ele>370.6</ele>
        <time>2012-09-04T15:57:11Z</time>
      </trkpt>
      <trkpt lat="48.76691" lon="7.31554">
        <ele>370.4</ele>
        <time>2012-09-04T15:57:16Z</time>
      </trkpt>
      <trkpt lat="48.76723" lon="7.31569">
        <ele>371.7</ele>
        <time>2012-09-04T15:57:35Z</time>
      </trkpt>
      <trkpt lat="48.76724" lon="7.31598">
        <ele>373.4</ele>
        <time>2012-09-04T15:57:44Z</time>
      </trkpt>
      <trkpt lat="48.76708" lon="7.3171">
        <ele>381.4</ele>
        <time>2012-09-04T15:58:12Z</time>
      </trkpt>
      <trkpt lat="48.76727" lon="7.31718">
        <ele>382.7</ele>
        <time>2012-09-04T15:58:24Z</time>
      </trkpt>
      <trkpt lat="48.76763" lon="7.31702">
        <ele>380.7</ele>
        <time>2012-09-04T15:58:35Z</time>
      </trkpt>
      <trkpt lat="48.76801" lon="7.31701">
        <ele>379</ele>
        <time>2012-09-04T15:58:46Z</time>
      </trkpt>
      <trkpt lat="48.76857" lon="7.31709">
        <ele>376.4</ele>
        <time>2012-09-04T16:00:51Z</time>
      </trkpt>
      <trkpt lat="48.76878" lon="7.31702">
        <ele>374.9</ele>
        <time>2012-09-04T16:00:56Z</time>
      </trkpt>
      <trkpt lat="48.76896" lon="7.3171">
        <ele>373.9</ele>
        <time>2012-09-04T16:01:01Z</time>
      </trkpt>
      <trkpt lat="48.7695" lon="7.31836">
        <ele>376.9</ele>
        <time>2012-09-04T16:01:23Z</time>
      </trkpt>
      <trkpt lat="48.77026" lon="7.31985">
        <ele>374.3</ele>
        <time>2012-09-04T16:01:44Z</time>
      </trkpt>
      <trkpt lat="48.77183" lon="7.32352">
        <ele>379</ele>
        <time>2012-09-04T16:02:43Z</time>
      </trkpt>
      <trkpt lat="48.77248" lon="7.32489">
        <ele>375.7</ele>
        <time>2012-09-04T16:03:03Z</time>
      </trkpt>
      <trkpt lat="48.77266" lon="7.32551">
        <ele>378.8</ele>
        <time>2012-09-04T16:03:11Z</time>
      </trkpt>
      <trkpt lat="48.77273" lon="7.3264">
        <ele>380.5</ele>
        <time>2012-09-04T16:03:30Z</time>
      </trkpt>
      <trkpt lat="48.77288" lon="7.32663">
        <ele>378.1</ele>
        <time>2012-09-04T16:03:33Z</time>
      </trkpt>
      <trkpt lat="48.77368" lon="7.3268">
        <ele>374.5</ele>
        <time>2012-09-04T16:03:58Z</time>
      </trkpt>
      <trkpt lat="48.77386" lon="7.32672">
        <ele>376.2</ele>
        <time>2012-09-04T16:04:04Z</time>
      </trkpt>
      <trkpt lat="48.77406" lon="7.32676">
        <ele>378.2</ele>
        <time>2012-09-04T16:04:55Z</time>
      </trkpt>
      <trkpt lat="48.77435" lon="7.32708">
        <ele>382.2</ele>
        <time>2012-09-04T16:05:19Z</time>
      </trkpt>
      <trkpt lat="48.77378" lon="7.32629">
        <ele>375.3</ele>
        <time>2012-09-04T16:05:49Z</time>
      </trkpt>
      <trkpt lat="48.77343" lon="7.32523">
        <ele>368.5</ele>
        <time>2012-09-04T16:06:07Z</time>
      </trkpt>
      <trkpt lat="48.77302" lon="7.32368">
        <ele>362.1</ele>
        <time>2012-09-04T16:06:22Z</time>
      </trkpt>
      <trkpt lat="48.77229" lon="7.32145">
        <ele>346.3</ele>
        <time>2012-09-04T16:07:00Z</time>
      </trkpt>
      <trkpt lat="48.77153" lon="7.31837">
        <ele>345.3</ele>
        <time>2012-09-04T16:07:56Z</time>
      </trkpt>
      <trkpt lat="48.77189" lon="7.31981">
        <ele>341.3</ele>
        <time>2012-09-04T16:11:31Z</time>
      </trkpt>
      <trkpt lat="48.77273" lon="7.32239">
        <ele>350.1</ele>
        <time>2012-09-04T16:12:10Z</time>
      </trkpt>
      <trkpt lat="48.77317" lon="7.32365">
        <ele>361.2</ele>
        <time>2012-09-04T16:12:36Z</time>
      </trkpt>
      <trkpt lat="48.7736" lon="7.32461">
        <ele>365.3</ele>
        <time>2012-09-04T16:13:11Z</time>
      </trkpt>
      <trkpt lat="48.7738" lon="7.32569">
        <ele>374.4</ele>
        <time>2012-09-04T16:13:50Z</time>
      </trkpt>
      <trkpt lat="48.77396" lon="7.32618">
        <ele>376.7</ele>
        <time>2012-09-04T16:14:08Z</time>
      </trkpt>
      <trkpt lat="48.77416" lon="7.32613">
        <ele>378.3</ele>
        <time>2012-09-04T16:14:19Z</time>
      </trkpt>
      <trkpt lat="48.7745" lon="7.3258">
        <ele>377.7</ele>
        <time>2012-09-04T16:14:28Z</time>
      </trkpt>
      <trkpt lat="48.77491" lon="7.32556">
        <ele>375.2</ele>
        <time>2012-09-04T16:14:35Z</time>
      </trkpt>
      <trkpt lat="48.77548" lon="7.32533">
        <ele>371.5</ele>
        <time>2012-09-04T16:14:44Z</time>
      </trkpt>
      <trkpt lat="48.77645" lon="7.32537">
        <ele>366.7</ele>
        <time>2012-09-04T16:15:14Z</time>
      </trkpt>
      <trkpt lat="48.77755" lon="7.32615">
        <ele>358.6</ele>
        <time>2012-09-04T16:15:39Z</time>
      </trkpt>
      <trkpt lat="48.77811" lon="7.32644">
        <ele>359</ele>
        <time>2012-09-04T16:15:51Z</time>
      </trkpt>
      <trkpt lat="48.77862" lon="7.32685">
        <ele>358.9</ele>
        <time>2012-09-04T16:16:03Z</time>
      </trkpt>
      <trkpt lat="48.77928" lon="7.32775">
        <ele>360</ele>
        <time>2012-09-04T16:16:19Z</time>
      </trkpt>
      <trkpt lat="48.77996" lon="7.32895">
        <ele>365.1</ele>
        <time>2012-09-04T16:16:39Z</time>
      </trkpt>
      <trkpt lat="48.78121" lon="7.32993">
        <ele>362.3</ele>
        <time>2012-09-04T16:17:07Z</time>
      </trkpt>
      <trkpt lat="48.78273" lon="7.33176">
        <ele>366.4</ele>
        <time>2012-09-04T16:17:40Z</time>
      </trkpt>
      <trkpt lat="48.78283" lon="7.33199">
        <ele>365.8</ele>
        <time>2012-09-04T16:17:43Z</time>
      </trkpt>
      <trkpt lat="48.78286" lon="7.33232">
        <ele>365.8</ele>
        <time>2012-09-04T16:17:47Z</time>
      </trkpt>
      <trkpt lat="48.78279" lon="7.33263">
        <ele>363.6</ele>
        <time>2012-09-04T16:17:51Z</time>
      </trkpt>
      <trkpt lat="48.78263" lon="7.33288">
        <ele>359.3</ele>
        <time>2012-09-04T16:17:56Z</time>
      </trkpt>
      <trkpt lat="48.78246" lon="7.33297">
        <ele>358.2</ele>
        <time>2012-09-04T16:18:01Z</time>
      </trkpt>
      <trkpt lat="48.78203" lon="7.33294">
        <ele>358.9</ele>
        <time>2012-09-04T16:18:09Z</time>
      </trkpt>
      <trkpt lat="48.78183" lon="7.33282">
        <ele>361.6</ele>
        <time>2012-09-04T16:18:14Z</time>
      </trkpt>
      <trkpt lat="48.78096" lon="7.33262">
        <ele>363.4</ele>
        <time>2012-09-04T16:18:31Z</time>
      </trkpt>
      <trkpt lat="48.78057" lon="7.33266">
        <ele>363.6</ele>
        <time>2012-09-04T16:18:39Z</time>
      </trkpt>
      <trkpt lat="48.78018" lon="7.33287">
        <ele>362.7</ele>
        <time>2012-09-04T16:18:47Z</time>
      </trkpt>
      <trkpt lat="48.77958" lon="7.33374">
        <ele>363</ele>
        <time>2012-09-04T16:19:04Z</time>
      </trkpt>
      <trkpt lat="48.77925" lon="7.33487">
        <ele>369.4</ele>
        <time>2012-09-04T16:19:25Z</time>
      </trkpt>
      <trkpt lat="48.77914" lon="7.33577">
        <ele>369.2</ele>
        <time>2012-09-04T16:19:42Z</time>
      </trkpt>
      <trkpt lat="48.779" lon="7.33593">
        <ele>371.4</ele>
        <time>2012-09-04T16:19:48Z</time>
      </trkpt>
      <trkpt lat="48.77765" lon="7.33679">
        <ele>386.5</ele>
        <time>2012-09-04T16:20:29Z</time>
      </trkpt>
      <trkpt lat="48.77702" lon="7.33756">
        <ele>388.9</ele>
        <time>2012-09-04T16:20:50Z</time>
      </trkpt>
      <trkpt lat="48.77689" lon="7.33815">
        <ele>389</ele>
        <time>2012-09-04T16:21:01Z</time>
      </trkpt>
      <trkpt lat="48.77693" lon="7.33878">
        <ele>387.1</ele>
        <time>2012-09-04T16:21:09Z</time>
      </trkpt>
      <trkpt lat="48.77729" lon="7.3408">
        <ele>388.9</ele>
        <time>2012-09-04T16:21:43Z</time>
      </trkpt>
      <trkpt lat="48.77732" lon="7.3414">
        <ele>387.8</ele>
        <time>2012-09-04T16:21:51Z</time>
      </trkpt>
      <trkpt lat="48.77703" lon="7.34505">
        <ele>399.7</ele>
        <time>2012-09-04T16:22:48Z</time>
      </trkpt>
      <trkpt lat="48.77697" lon="7.34566">
        <ele>401.4</ele>
        <time>2012-09-04T16:22:58Z</time>
      </trkpt>
      <trkpt lat="48.77675" lon="7.34661">
        <ele>409.2</ele>
        <time>2012-09-04T16:23:10Z</time>
      </trkpt>
      <trkpt lat="48.77694" lon="7.34747">
        <ele>407.8</ele>
        <time>2012-09-04T16:23:25Z</time>
      </trkpt>
      <trkpt lat="48.77697" lon="7.34776">
        <ele>408.6</ele>
        <time>2012-09-04T16:23:29Z</time>
      </trkpt>
      <trkpt lat="48.77692" lon="7.34811">
        <ele>411.8</ele>
        <time>2012-09-04T16:23:34Z</time>
      </trkpt>
      <trkpt lat="48.77715" lon="7.34927">
        <ele>411.2</ele>
        <time>2012-09-04T16:23:53Z</time>
      </trkpt>
      <trkpt lat="48.77709" lon="7.35012">
        <ele>413.6</ele>
        <time>2012-09-04T16:24:12Z</time>
      </trkpt>
      <trkpt lat="48.77725" lon="7.35036">
        <ele>411.3</ele>
        <time>2012-09-04T16:24:19Z</time>
      </trkpt>
      <trkpt lat="48.77742" lon="7.35046">
        <ele>408.9</ele>
        <time>2012-09-04T16:24:54Z</time>
      </trkpt>
      <trkpt lat="48.77755" lon="7.35069">
        <ele>408.8</ele>
        <time>2012-09-04T16:28:39Z</time>
      </trkpt>
      <trkpt lat="48.77775" lon="7.35081">
        <ele>410.4</ele>
        <time>2012-09-04T16:28:45Z</time>
      </trkpt>
      <trkpt lat="48.7779" lon="7.351">
        <ele>410.9</ele>
        <time>2012-09-04T16:28:50Z</time>
      </trkpt>
      <trkpt lat="48.77898" lon="7.35306">
        <ele>409</ele>
        <time>2012-09-04T16:29:42Z</time>
      </trkpt>
      <trkpt lat="48.7801" lon="7.35722">
        <ele>398.9</ele>
        <time>2012-09-04T16:30:38Z</time>
      </trkpt>
      <trkpt lat="48.78038" lon="7.35929">
        <ele>394.1</ele>
        <time>2012-09-04T16:31:03Z</time>
      </trkpt>
      <trkpt lat="48.78064" lon="7.36045">
        <ele>395.3</ele>
        <time>2012-09-04T16:31:17Z</time>
      </trkpt>
      <trkpt lat="48.78211" lon="7.36322">
        <ele>396.1</ele>
        <time>2012-09-04T16:32:03Z</time>
      </trkpt>
      <trkpt lat="48.78241" lon="7.36401">
        <ele>399.7</ele>
        <time>2012-09-04T16:32:11Z</time>
      </trkpt>
      <trkpt lat="48.78257" lon="7.36425">
        <ele>399.5</ele>
        <time>2012-09-04T16:32:14Z</time>
      </trkpt>
      <trkpt lat="48.78313" lon="7.36595">
        <ele>397.4</ele>
        <time>2012-09-04T16:32:34Z</time>
      </trkpt>
      <trkpt lat="48.78338" lon="7.36718">
        <ele>397.1</ele>
        <time>2012-09-04T16:32:48Z</time>
      </trkpt>
      <trkpt lat="48.78348" lon="7.36872">
        <ele>404.1</ele>
        <time>2012-09-04T16:33:10Z</time>
      </trkpt>
      <trkpt lat="48.78355" lon="7.36898">
        <ele>404.1</ele>
        <time>2012-09-04T16:33:14Z</time>
      </trkpt>
      <trkpt lat="48.78384" lon="7.36948">
        <ele>402.3</ele>
        <time>2012-09-04T16:33:23Z</time>
      </trkpt>
      <trkpt lat="48.78388" lon="7.36974">
        <ele>401.1</ele>
        <time>2012-09-04T16:34:06Z</time>
      </trkpt>
      <trkpt lat="48.78379" lon="7.37031">
        <ele>397.3</ele>
        <time>2012-09-04T16:34:19Z</time>
      </trkpt>
      <trkpt lat="48.78368" lon="7.37053">
        <ele>394.9</ele>
        <time>2012-09-04T16:34:28Z</time>
      </trkpt>
      <trkpt lat="48.7833" lon="7.37075">
        <ele>390</ele>
        <time>2012-09-04T16:34:36Z</time>
      </trkpt>
      <trkpt lat="48.78248" lon="7.37086">
        <ele>391.3</ele>
        <time>2012-09-04T16:34:50Z</time>
      </trkpt>
      <trkpt lat="48.78188" lon="7.37066">
        <ele>389.6</ele>
        <time>2012-09-04T16:35:06Z</time>
      </trkpt>
      <trkpt lat="48.78152" lon="7.37025">
        <ele>390.3</ele>
        <time>2012-09-04T16:35:16Z</time>
      </trkpt>
      <trkpt lat="48.78133" lon="7.37014">
        <ele>387.9</ele>
        <time>2012-09-04T16:35:19Z</time>
      </trkpt>
      <trkpt lat="48.78095" lon="7.36979">
        <ele>385.2</ele>
        <time>2012-09-04T16:35:27Z</time>
      </trkpt>
      <trkpt lat="48.78076" lon="7.36976">
        <ele>380.7</ele>
        <time>2012-09-04T16:35:30Z</time>
      </trkpt>
      <trkpt lat="48.78058" lon="7.36963">
        <ele>375.3</ele>
        <time>2012-09-04T16:35:36Z</time>
      </trkpt>
      <trkpt lat="48.78022" lon="7.36861">
        <ele>370.4</ele>
        <time>2012-09-04T16:36:04Z</time>
      </trkpt>
      <trkpt lat="48.78008" lon="7.36803">
        <ele>367.3</ele>
        <time>2012-09-04T16:36:17Z</time>
      </trkpt>
      <trkpt lat="48.78033" lon="7.36659">
        <ele>376.8</ele>
        <time>2012-09-04T16:36:47Z</time>
      </trkpt>
      <trkpt lat="48.78027" lon="7.365">
        <ele>379</ele>
        <time>2012-09-04T16:37:07Z</time>
      </trkpt>
      <trkpt lat="48.77991" lon="7.36331">
        <ele>374.5</ele>
        <time>2012-09-04T16:37:31Z</time>
      </trkpt>
      <trkpt lat="48.7799" lon="7.36299">
        <ele>375.7</ele>
        <time>2012-09-04T16:37:34Z</time>
      </trkpt>
      <trkpt lat="48.77972" lon="7.36247">
        <ele>369.8</ele>
        <time>2012-09-04T16:37:52Z</time>
      </trkpt>
      <trkpt lat="48.77946" lon="7.36131">
        <ele>363.1</ele>
        <time>2012-09-04T16:38:14Z</time>
      </trkpt>
      <trkpt lat="48.7794" lon="7.3606">
        <ele>365.6</ele>
        <time>2012-09-04T16:38:22Z</time>
      </trkpt>
      <trkpt lat="48.77926" lon="7.36004">
        <ele>363.1</ele>
        <time>2012-09-04T16:38:28Z</time>
      </trkpt>
      <trkpt lat="48.77909" lon="7.35807">
        <ele>368</ele>
        <time>2012-09-04T16:38:51Z</time>
      </trkpt>
      <trkpt lat="48.77849" lon="7.35608">
        <ele>364.3</ele>
        <time>2012-09-04T16:39:19Z</time>
      </trkpt>
      <trkpt lat="48.77819" lon="7.35533">
        <ele>364.7</ele>
        <time>2012-09-04T16:39:32Z</time>
      </trkpt>
      <trkpt lat="48.77789" lon="7.35422">
        <ele>379.9</ele>
        <time>2012-09-04T16:39:56Z</time>
      </trkpt>
      <trkpt lat="48.77759" lon="7.35343">
        <ele>386.9</ele>
        <time>2012-09-04T16:40:17Z</time>
      </trkpt>
      <trkpt lat="48.77741" lon="7.3533">
        <ele>388.3</ele>
        <time>2012-09-04T16:40:27Z</time>
      </trkpt>
      <trkpt lat="48.77721" lon="7.35325">
        <ele>390.3</ele>
        <time>2012-09-04T16:40:38Z</time>
      </trkpt>
      <trkpt lat="48.77687" lon="7.3535">
        <ele>389.2</ele>
        <time>2012-09-04T16:40:50Z</time>
      </trkpt>
      <trkpt lat="48.77657" lon="7.35433">
        <ele>381.9</ele>
        <time>2012-09-04T16:41:03Z</time>
      </trkpt>
      <trkpt lat="48.77641" lon="7.35526">
        <ele>374.1</ele>
        <time>2012-09-04T16:41:13Z</time>
      </trkpt>
      <trkpt lat="48.77618" lon="7.35577">
        <ele>375.1</ele>
        <time>2012-09-04T16:42:10Z</time>
      </trkpt>
      <trkpt lat="48.77607" lon="7.35631">
        <ele>374.9</ele>
        <time>2012-09-04T16:42:23Z</time>
      </trkpt>
      <trkpt lat="48.77607" lon="7.35719">
        <ele>367.1</ele>
        <time>2012-09-04T16:42:40Z</time>
      </trkpt>
      <trkpt lat="48.77588" lon="7.35841">
        <ele>368</ele>
        <time>2012-09-04T16:43:03Z</time>
      </trkpt>
      <trkpt lat="48.77575" lon="7.35861">
        <ele>372.4</ele>
        <time>2012-09-04T16:43:08Z</time>
      </trkpt>
      <trkpt lat="48.77559" lon="7.35953">
        <ele>375</ele>
        <time>2012-09-04T16:43:23Z</time>
      </trkpt>
      <trkpt lat="48.7756" lon="7.36039">
        <ele>373.4</ele>
        <time>2012-09-04T16:43:36Z</time>
      </trkpt>
      <trkpt lat="48.77555" lon="7.3607">
        <ele>374.8</ele>
        <time>2012-09-04T16:43:41Z</time>
      </trkpt>
      <trkpt lat="48.77544" lon="7.36092">
        <ele>377.8</ele>
        <time>2012-09-04T16:43:45Z</time>
      </trkpt>
      <trkpt lat="48.77541" lon="7.36155">
        <ele>377.7</ele>
        <time>2012-09-04T16:43:54Z</time>
      </trkpt>
      <trkpt lat="48.77536" lon="7.3618">
        <ele>378.6</ele>
        <time>2012-09-04T16:44:01Z</time>
      </trkpt>
      <trkpt lat="48.77516" lon="7.36192">
        <ele>383.2</ele>
        <time>2012-09-04T16:44:11Z</time>
      </trkpt>
      <trkpt lat="48.77504" lon="7.36214">
        <ele>384.1</ele>
        <time>2012-09-04T16:44:20Z</time>
      </trkpt>
      <trkpt lat="48.77502" lon="7.36241">
        <ele>381.7</ele>
        <time>2012-09-04T16:44:40Z</time>
      </trkpt>
      <trkpt lat="48.77523" lon="7.3632">
        <ele>368</ele>
        <time>2012-09-04T16:44:58Z</time>
      </trkpt>
      <trkpt lat="48.77549" lon="7.36367">
        <ele>357.5</ele>
        <time>2012-09-04T16:45:08Z</time>
      </trkpt>
      <trkpt lat="48.77554" lon="7.3639">
        <ele>352</ele>
        <time>2012-09-04T16:49:29Z</time>
      </trkpt>
      <trkpt lat="48.77525" lon="7.36357">
        <ele>360.4</ele>
        <time>2012-09-04T16:51:23Z</time>
      </trkpt>
      <trkpt lat="48.77503" lon="7.36275">
        <ele>376.5</ele>
        <time>2012-09-04T16:51:53Z</time>
      </trkpt>
      <trkpt lat="48.77497" lon="7.36217">
        <ele>383.6</ele>
        <time>2012-09-04T16:52:08Z</time>
      </trkpt>
      <trkpt lat="48.77464" lon="7.36184">
        <ele>379.6</ele>
        <time>2012-09-04T16:52:21Z</time>
      </trkpt>
      <trkpt lat="48.77407" lon="7.36102">
        <ele>380.2</ele>
        <time>2012-09-04T16:52:40Z</time>
      </trkpt>
      <trkpt lat="48.77264" lon="7.35924">
        <ele>348.3</ele>
        <time>2012-09-04T16:53:19Z</time>
      </trkpt>
      <trkpt lat="48.77228" lon="7.35783">
        <ele>356.5</ele>
        <time>2012-09-04T16:53:45Z</time>
      </trkpt>
      <trkpt lat="48.77201" lon="7.35742">
        <ele>355.9</ele>
        <time>2012-09-04T16:53:59Z</time>
      </trkpt>
      <trkpt lat="48.77151" lon="7.35706">
        <ele>348</ele>
        <time>2012-09-04T16:54:16Z</time>
      </trkpt>
      <trkpt lat="48.77118" lon="7.35632">
        <ele>340.1</ele>
        <time>2012-09-04T16:54:35Z</time>
      </trkpt>
      <trkpt lat="48.77111" lon="7.35576">
        <ele>336.2</ele>
        <time>2012-09-04T16:54:47Z</time>
      </trkpt>
      <trkpt lat="48.77115" lon="7.35551">
        <ele>336.8</ele>
        <time>2012-09-04T16:54:53Z</time>
      </trkpt>
      <trkpt lat="48.77088" lon="7.3547">
        <ele>319.5</ele>
        <time>2012-09-04T16:55:16Z</time>
      </trkpt>
      <trkpt lat="48.77111" lon="7.35333">
        <ele>337.8</ele>
        <time>2012-09-04T16:55:49Z</time>
      </trkpt>
      <trkpt lat="48.7709" lon="7.3532">
        <ele>334.4</ele>
        <time>2012-09-04T16:55:59Z</time>
      </trkpt>
      <trkpt lat="48.77072" lon="7.3532">
        <ele>331.6</ele>
        <time>2012-09-04T16:56:03Z</time>
      </trkpt>
      <trkpt lat="48.76993" lon="7.35345">
        <ele>320.9</ele>
        <time>2012-09-04T16:56:20Z</time>
      </trkpt>
      <trkpt lat="48.76938" lon="7.35314">
        <ele>333.2</ele>
        <time>2012-09-04T16:56:54Z</time>
      </trkpt>
      <trkpt lat="48.76923" lon="7.35297">
        <ele>337</ele>
        <time>2012-09-04T16:57:00Z</time>
      </trkpt>
      <trkpt lat="48.76888" lon="7.35229">
        <ele>350.5</ele>
        <time>2012-09-04T16:57:16Z</time>
      </trkpt>
      <trkpt lat="48.7685" lon="7.35337">
        <ele>339.1</ele>
        <time>2012-09-04T16:57:49Z</time>
      </trkpt>
      <trkpt lat="48.7681" lon="7.35361">
        <ele>335.2</ele>
        <time>2012-09-04T16:58:01Z</time>
      </trkpt>
      <trkpt lat="48.76791" lon="7.35366">
        <ele>331.8</ele>
        <time>2012-09-04T16:58:09Z</time>
      </trkpt>
      <trkpt lat="48.76773" lon="7.35363">
        <ele>329.6</ele>
        <time>2012-09-04T16:58:18Z</time>
      </trkpt>
      <trkpt lat="48.76736" lon="7.35303">
        <ele>328.7</ele>
        <time>2012-09-04T16:58:45Z</time>
      </trkpt>
      <trkpt lat="48.76731" lon="7.35277">
        <ele>330</ele>
        <time>2012-09-04T16:58:53Z</time>
      </trkpt>
      <trkpt lat="48.76687" lon="7.35181">
        <ele>326.4</ele>
        <time>2012-09-04T16:59:28Z</time>
      </trkpt>
      <trkpt lat="48.76667" lon="7.35172">
        <ele>322.5</ele>
        <time>2012-09-04T16:59:35Z</time>
      </trkpt>
      <trkpt lat="48.76654" lon="7.35152">
        <ele>321.4</ele>
        <time>2012-09-04T16:59:41Z</time>
      </trkpt>
      <trkpt lat="48.76618" lon="7.35118">
        <ele>316.7</ele>
        <time>2012-09-04T16:59:53Z</time>
      </trkpt>
      <trkpt lat="48.76583" lon="7.35112">
        <ele>311.2</ele>
        <time>2012-09-04T17:01:16Z</time>
      </trkpt>
      <trkpt lat="48.76549" lon="7.35133">
        <ele>306.2</ele>
        <time>2012-09-04T17:01:28Z</time>
      </trkpt>
      <trkpt lat="48.76507" lon="7.3519">
        <ele>293.1</ele>
        <time>2012-09-04T17:01:51Z</time>
      </trkpt>
      <trkpt lat="48.76511" lon="7.35233">
        <ele>284.7</ele>
        <time>2012-09-04T17:01:55Z</time>
      </trkpt>
      <trkpt lat="48.76501" lon="7.35256">
        <ele>278.1</ele>
        <time>2012-09-04T17:02:00Z</time>
      </trkpt>
      <trkpt lat="48.765" lon="7.35283">
        <ele>273.5</ele>
        <time>2012-09-04T17:02:05Z</time>
      </trkpt>
      <trkpt lat="48.76482" lon="7.35355">
        <ele>264.4</ele>
        <time>2012-09-04T17:02:33Z</time>
      </trkpt>
      <trkpt lat="48.7647" lon="7.35375">
        <ele>263.8</ele>
        <time>2012-09-04T17:02:40Z</time>
      </trkpt>
      <trkpt lat="48.76484" lon="7.35394">
        <ele>263.8</ele>
        <time>2012-09-04T17:02:46Z</time>
      </trkpt>
      <trkpt lat="48.76539" lon="7.35436">
        <ele>265.4</ele>
        <time>2012-09-04T17:03:01Z</time>
      </trkpt>
      <trkpt lat="48.76583" lon="7.35492">
        <ele>266.3</ele>
        <time>2012-09-04T17:03:16Z</time>
      </trkpt>
      <trkpt lat="48.76615" lon="7.35567">
        <ele>266</ele>
        <time>2012-09-04T17:03:27Z</time>
      </trkpt>
      <trkpt lat="48.7662" lon="7.35597">
        <ele>265.1</ele>
        <time>2012-09-04T17:03:33Z</time>
      </trkpt>
      <trkpt lat="48.76616" lon="7.35629">
        <ele>263.7</ele>
        <time>2012-09-04T17:03:41Z</time>
      </trkpt>
      <trkpt lat="48.76578" lon="7.35671">
        <ele>258.2</ele>
        <time>2012-09-04T17:03:45Z</time>
      </trkpt>
      <trkpt lat="48.7644" lon="7.35858">
        <ele>243.7</ele>
        <time>2012-09-04T17:03:59Z</time>
      </trkpt>
      <trkpt lat="48.76285" lon="7.35988">
        <ele>243.8</ele>
        <time>2012-09-04T17:04:20Z</time>
      </trkpt>
      <trkpt lat="48.76267" lon="7.36002">
        <ele>243.2</ele>
        <time>2012-09-04T17:04:23Z</time>
      </trkpt>
      <trkpt lat="48.76248" lon="7.36002">
        <ele>242.9</ele>
        <time>2012-09-04T17:04:27Z</time>
      </trkpt>
      <trkpt lat="48.76238" lon="7.35973">
        <ele>243.1</ele>
        <time>2012-09-04T17:04:31Z</time>
      </trkpt>
      <trkpt lat="48.76232" lon="7.3582">
        <ele>243.5</ele>
        <time>2012-09-04T17:04:48Z</time>
      </trkpt>
      <trkpt lat="48.76212" lon="7.35808">
        <ele>242.9</ele>
        <time>2012-09-04T17:04:53Z</time>
      </trkpt>
      <trkpt lat="48.76148" lon="7.35842">
        <ele>238.6</ele>
        <time>2012-09-04T17:05:01Z</time>
      </trkpt>
      <trkpt lat="48.76104" lon="7.35855">
        <ele>235.2</ele>
        <time>2012-09-04T17:05:05Z</time>
      </trkpt>
      <trkpt lat="48.76077" lon="7.35857">
        <ele>233.1</ele>
        <time>2012-09-04T17:05:07Z</time>
      </trkpt>
      <trkpt lat="48.76009" lon="7.35844">
        <ele>228.5</ele>
        <time>2012-09-04T17:05:13Z</time>
      </trkpt>
      <trkpt lat="48.75944" lon="7.35859">
        <ele>223.4</ele>
        <time>2012-09-04T17:05:19Z</time>
      </trkpt>
      <trkpt lat="48.75919" lon="7.35868">
        <ele>221.6</ele>
        <time>2012-09-04T17:05:21Z</time>
      </trkpt>
      <trkpt lat="48.75885" lon="7.35907">
        <ele>218.9</ele>
        <time>2012-09-04T17:05:25Z</time>
      </trkpt>
      <trkpt lat="48.75768" lon="7.36215">
        <ele>205.9</ele>
        <time>2012-09-04T17:05:47Z</time>
      </trkpt>
      <trkpt lat="48.7574" lon="7.36271">
        <ele>203.2</ele>
        <time>2012-09-04T17:05:51Z</time>
      </trkpt>
      <trkpt lat="48.75703" lon="7.36315">
        <ele>198.4</ele>
        <time>2012-09-04T17:05:56Z</time>
      </trkpt>
      <trkpt lat="48.75685" lon="7.3631">
        <ele>197.7</ele>
        <time>2012-09-04T17:06:02Z</time>
      </trkpt>
      <trkpt lat="48.7567" lon="7.36257">
        <ele>200.7</ele>
        <time>2012-09-04T17:06:13Z</time>
      </trkpt>
      <trkpt lat="48.75656" lon="7.3628">
        <ele>199</ele>
        <time>2012-09-04T17:06:24Z</time>
      </trkpt>
      <trkpt lat="48.75637" lon="7.3629">
        <ele>198.6</ele>
        <time>2012-09-04T17:06:30Z</time>
      </trkpt>
      <trkpt lat="48.75576" lon="7.36275">
        <ele>200.3</ele>
        <time>2012-09-04T17:06:45Z</time>
      </trkpt>
      <trkpt lat="48.75452" lon="7.36273">
        <ele>196.9</ele>
        <time>2012-09-04T17:07:08Z</time>
      </trkpt>
      <trkpt lat="48.75412" lon="7.3626">
        <ele>196.2</ele>
        <time>2012-09-04T17:07:14Z</time>
      </trkpt>
      <trkpt lat="48.7531" lon="7.36207">
        <ele>193.6</ele>
        <time>2012-09-04T17:07:29Z</time>
      </trkpt>
      <trkpt lat="48.75269" lon="7.36196">
        <ele>193.1</ele>
        <time>2012-09-04T17:07:35Z</time>
      </trkpt>
      <trkpt lat="48.75249" lon="7.36198">
        <ele>192.6</ele>
        <time>2012-09-04T17:07:38Z</time>
      </trkpt>
      <trkpt lat="48.75099" lon="7.36292">
        <ele>194.4</ele>
        <time>2012-09-04T17:08:07Z</time>
      </trkpt>
      <trkpt lat="48.75017" lon="7.36393">
        <ele>195.4</ele>
        <time>2012-09-04T17:08:26Z</time>
      </trkpt>
      <trkpt lat="48.74955" lon="7.36458">
        <ele>199.6</ele>
        <time>2012-09-04T17:08:43Z</time>
      </trkpt>
      <trkpt lat="48.74825" lon="7.36527">
        <ele>206.3</ele>
        <time>2012-09-04T17:09:41Z</time>
      </trkpt>
      <trkpt lat="48.74809" lon="7.36515">
        <ele>206.6</ele>
        <time>2012-09-04T17:09:46Z</time>
      </trkpt>
      <trkpt lat="48.74783" lon="7.36473">
        <ele>207.6</ele>
        <time>2012-09-04T17:09:57Z</time>
      </trkpt>
      <trkpt lat="48.74751" lon="7.36439">
        <ele>208.5</ele>
        <time>2012-09-04T17:10:08Z</time>
      </trkpt>
      <trkpt lat="48.74742" lon="7.36413">
        <ele>208.5</ele>
        <time>2012-09-04T17:10:12Z</time>
      </trkpt>
      <trkpt lat="48.74741" lon="7.36384">
        <ele>208.8</ele>
        <time>2012-09-04T17:10:16Z</time>
      </trkpt>
      <trkpt lat="48.74767" lon="7.36337">
        <ele>210</ele>
        <time>2012-09-04T17:10:26Z</time>
      </trkpt>
      <trkpt lat="48.74708" lon="7.36203">
        <ele>205.4</ele>
        <time>2012-09-04T17:10:45Z</time>
      </trkpt>
      <trkpt lat="48.74689" lon="7.36205">
        <ele>203.9</ele>
        <time>2012-09-04T17:10:51Z</time>
      </trkpt>
      <trkpt lat="48.74638" lon="7.36254">
        <ele>197.7</ele>
        <time>2012-09-04T17:11:00Z</time>
      </trkpt>
      <trkpt lat="48.74533" lon="7.36298">
        <ele>188.1</ele>
        <time>2012-09-04T17:11:12Z</time>
      </trkpt>
      <trkpt lat="48.74513" lon="7.36298">
        <ele>186.1</ele>
        <time>2012-09-04T17:11:18Z</time>
      </trkpt>
      <trkpt lat="48.74498" lon="7.36239">
        <ele>186.6</ele>
        <time>2012-09-04T17:11:27Z</time>
      </trkpt>
      <trkpt lat="48.74483" lon="7.36117">
        <ele>191</ele>
        <time>2012-09-04T17:11:41Z</time>
      </trkpt>
      <trkpt lat="48.74438" lon="7.35942">
        <ele>189.2</ele>
        <time>2012-09-04T17:12:01Z</time>
      </trkpt>
      <trkpt lat="48.7442" lon="7.35793">
        <ele>186.8</ele>
        <time>2012-09-04T17:12:20Z</time>
      </trkpt>
      <trkpt lat="48.7443" lon="7.35817">
        <ele>189.5</ele>
        <time>2012-09-04T17:12:34Z</time>
      </trkpt>
      <trkpt lat="48.74427" lon="7.35844">
        <ele>189</ele>
        <time>2012-09-04T17:12:40Z</time>
      </trkpt>
      <trkpt lat="48.74411" lon="7.35862">
        <ele>186.3</ele>
        <time>2012-09-04T17:12:48Z</time>
      </trkpt>
      <trkpt lat="48.7439" lon="7.35869">
        <ele>186.4</ele>
        <time>2012-09-04T17:12:53Z</time>
      </trkpt>
      <trkpt lat="48.74377" lon="7.35891">
        <ele>186.4</ele>
        <time>2012-09-04T17:13:01Z</time>
      </trkpt>
      <trkpt lat="48.74365" lon="7.35949">
        <ele>186.7</ele>
        <time>2012-09-04T17:13:11Z</time>
      </trkpt>
      <trkpt lat="48.74333" lon="7.3599">
        <ele>188</ele>
        <time>2012-09-04T17:13:19Z</time>
      </trkpt>
      <trkpt lat="48.74288" lon="7.36085">
        <ele>187.6</ele>
        <time>2012-09-04T17:13:40Z</time>
      </trkpt>
      <trkpt lat="48.74256" lon="7.36124">
        <ele>186.9</ele>
        <time>2012-09-04T17:13:51Z</time>
      </trkpt>
      <trkpt lat="48.74229" lon="7.36169">
        <ele>189.3</ele>
        <time>2012-09-04T17:14:01Z</time>
      </trkpt>
      <trkpt lat="48.74197" lon="7.36244">
        <ele>195.9</ele>
        <time>2012-09-04T17:14:24Z</time>
      </trkpt>
      <trkpt lat="48.74165" lon="7.36285">
        <ele>198.5</ele>
        <time>2012-09-04T17:14:37Z</time>
      </trkpt>
      <trkpt lat="48.74148" lon="7.36297">
        <ele>200.1</ele>
        <time>2012-09-04T17:14:42Z</time>
      </trkpt>
      <trkpt lat="48.74126" lon="7.36375">
        <ele>201.6</ele>
        <time>2012-09-04T17:14:59Z</time>
      </trkpt>
      <trkpt lat="48.74093" lon="7.36407">
        <ele>207.2</ele>
        <time>2012-09-04T17:15:09Z</time>
      </trkpt>
      <trkpt lat="48.74039" lon="7.36503">
        <ele>206.6</ele>
        <time>2012-09-04T17:15:30Z</time>
      </trkpt>
      <trkpt lat="48.74009" lon="7.36533">
        <ele>203.6</ele>
        <time>2012-09-04T17:15:36Z</time>
      </trkpt>
      <trkpt lat="48.73988" lon="7.3654">
        <ele>202.8</ele>
        <time>2012-09-04T17:15:46Z</time>
      </trkpt>
      <trkpt lat="48.7397" lon="7.36535">
        <ele>202.5</ele>
        <time>2012-09-04T17:15:51Z</time>
      </trkpt>
      <trkpt lat="48.73955" lon="7.36514">
        <ele>203.1</ele>
        <time>2012-09-04T17:15:58Z</time>
      </trkpt>
      <trkpt lat="48.73933" lon="7.36432">
        <ele>203.7</ele>
        <time>2012-09-04T17:16:16Z</time>
      </trkpt>
      <trkpt lat="48.7392" lon="7.36415">
        <ele>203.3</ele>
        <time>2012-09-04T17:16:21Z</time>
      </trkpt>
      <trkpt lat="48.73883" lon="7.3639">
        <ele>203</ele>
        <time>2012-09-04T17:16:32Z</time>
      </trkpt>
      <trkpt lat="48.73847" lon="7.3638">
        <ele>202.3</ele>
        <time>2012-09-04T17:16:40Z</time>
      </trkpt>
      <trkpt lat="48.73729" lon="7.36365">
        <ele>203.2</ele>
        <time>2012-09-04T17:17:04Z</time>
      </trkpt>
      <trkpt lat="48.73687" lon="7.36351">
        <ele>206</ele>
        <time>2012-09-04T17:17:12Z</time>
      </trkpt>
      <trkpt lat="48.73601" lon="7.36287">
        <ele>211.5</ele>
        <time>2012-09-04T17:17:32Z</time>
      </trkpt>
      <trkpt lat="48.73509" lon="7.3624">
        <ele>214.4</ele>
        <time>2012-09-04T17:17:53Z</time>
      </trkpt>
      <trkpt lat="48.73405" lon="7.36108">
        <ele>218.4</ele>
        <time>2012-09-04T17:18:28Z</time>
      </trkpt>
      <trkpt lat="48.73355" lon="7.3602">
        <ele>220.7</ele>
        <time>2012-09-04T17:18:49Z</time>
      </trkpt>
      <trkpt lat="48.73219" lon="7.35654">
        <ele>232.7</ele>
        <time>2012-09-04T17:19:43Z</time>
      </trkpt>
      <trkpt lat="48.73222" lon="7.35598">
        <ele>234</ele>
        <time>2012-09-04T17:19:58Z</time>
      </trkpt>
      <trkpt lat="48.73393" lon="7.35413">
        <ele>245.4</ele>
        <time>2012-09-04T17:20:23Z</time>
      </trkpt>
    </trkseg>
  </trk>
</gpx>